createdAt,value
2023-08-13T00:00:19.550Z,95124.00
2023-08-13T00:01:19.632Z,95128.00
2023-08-13T00:02:19.680Z,95126.00
2023-08-13T00:03:19.813Z,95124.00
2023-08-13T00:04:19.787Z,95128.00
2023-08-13T00:05:19.792Z,95128.00
2023-08-13T00:06:19.863Z,95126.00
2023-08-13T00:07:19.922Z,95126.00
2023-08-13T00:08:19.973Z,95126.00
2023-08-13T00:09:20.025Z,95124.00
2023-08-13T00:10:20.094Z,95124.00
2023-08-13T00:11:20.119Z,95120.00
2023-08-13T00:12:20.180Z,95120.00
2023-08-13T00:13:20.266Z,95120.00
2023-08-13T00:14:20.390Z,95120.00
2023-08-13T00:15:20.439Z,95118.00
2023-08-13T00:16:20.469Z,95122.00
2023-08-13T00:17:20.476Z,95122.00
2023-08-13T00:18:20.515Z,95120.00
2023-08-13T00:19:20.554Z,95122.00
2023-08-13T00:20:20.613Z,95126.00
2023-08-13T00:21:20.705Z,95122.00
2023-08-13T00:22:20.751Z,95122.00
2023-08-13T00:23:20.842Z,95122.00
2023-08-13T00:24:20.844Z,95124.00
2023-08-13T00:25:20.887Z,95124.00
2023-08-13T00:26:20.946Z,95126.00
2023-08-13T00:27:21.021Z,95128.00
2023-08-13T00:28:21.096Z,95126.00
2023-08-13T00:29:21.126Z,95126.00
2023-08-13T00:30:21.191Z,95124.00
2023-08-13T00:31:21.328Z,95122.00
2023-08-13T00:32:21.317Z,95118.00
2023-08-13T00:33:21.349Z,95118.00
2023-08-13T00:34:21.412Z,95120.00
2023-08-13T00:35:21.485Z,95120.00
2023-08-13T00:36:21.513Z,95122.00
2023-08-13T00:37:21.575Z,95122.00
2023-08-13T00:38:21.612Z,95120.00
2023-08-13T00:39:21.728Z,95120.00
2023-08-13T00:40:21.756Z,95112.00
2023-08-13T00:41:21.829Z,95116.00
2023-08-13T00:42:21.871Z,95111.00
2023-08-13T00:43:21.945Z,95111.00
2023-08-13T00:44:22.028Z,95114.00
2023-08-13T00:45:22.087Z,95111.00
2023-08-13T00:46:22.157Z,95116.00
2023-08-13T00:47:22.213Z,95112.00
2023-08-13T00:48:22.234Z,95111.00
2023-08-13T00:49:22.459Z,95111.00
2023-08-13T00:50:22.365Z,95111.00
2023-08-13T00:51:22.457Z,95109.00
2023-08-13T00:52:22.474Z,95109.00
2023-08-13T00:53:22.531Z,95109.00
2023-08-13T00:54:22.590Z,95105.00
2023-08-13T00:55:22.663Z,95107.00
2023-08-13T00:56:22.697Z,95109.00
2023-08-13T00:57:22.766Z,95107.00
2023-08-13T00:58:22.840Z,95107.00
2023-08-13T00:59:22.880Z,95109.00
2023-08-13T01:00:22.924Z,95109.00
2023-08-13T01:01:23.048Z,95111.00
2023-08-13T01:02:23.078Z,95109.00
2023-08-13T01:03:23.143Z,95109.00
2023-08-13T01:04:23.314Z,95109.00
2023-08-13T01:05:23.304Z,95111.00
2023-08-13T01:06:23.332Z,95109.00
2023-08-13T01:07:23.376Z,95109.00
2023-08-13T01:08:23.420Z,95109.00
2023-08-13T01:09:23.466Z,95109.00
2023-08-13T01:10:23.522Z,95105.00
2023-08-13T01:11:23.576Z,95107.00
2023-08-13T01:12:23.615Z,95107.00
2023-08-13T01:13:23.691Z,95107.00
2023-08-13T01:14:23.729Z,95105.00
2023-08-13T01:15:23.806Z,95109.00
2023-08-13T01:16:23.901Z,95105.00
2023-08-13T01:17:23.917Z,95103.00
2023-08-13T01:18:23.981Z,95107.00
2023-08-13T01:19:24.028Z,95107.00
2023-08-13T01:20:24.083Z,95107.00
2023-08-13T01:21:24.187Z,95103.00
2023-08-13T01:22:24.186Z,95107.00
2023-08-13T01:23:24.245Z,95107.00
2023-08-13T01:24:24.332Z,95105.00
2023-08-13T01:25:24.371Z,95105.00
2023-08-13T01:26:24.416Z,95107.00
2023-08-13T01:27:24.477Z,95107.00
2023-08-13T01:28:24.543Z,95109.00
2023-08-13T01:29:24.587Z,95111.00
2023-08-13T01:30:24.632Z,95112.00
2023-08-13T01:31:24.687Z,95112.00
2023-08-13T01:32:24.741Z,95109.00
2023-08-13T01:33:24.831Z,95111.00
2023-08-13T01:34:24.940Z,95112.00
2023-08-13T01:35:24.904Z,95111.00
2023-08-13T01:36:24.942Z,95112.00
2023-08-13T01:37:25.054Z,95112.00
2023-08-13T01:38:25.044Z,95111.00
2023-08-13T01:39:25.168Z,95112.00
2023-08-13T01:40:25.166Z,95112.00
2023-08-13T01:41:25.210Z,95112.00
2023-08-13T01:42:25.267Z,95112.00
2023-08-13T01:43:25.324Z,95111.00
2023-08-13T01:44:25.423Z,95111.00
2023-08-13T01:45:25.479Z,95109.00
2023-08-13T01:46:25.429Z,95109.00
2023-08-13T01:47:25.561Z,95109.00
2023-08-13T01:48:25.530Z,95105.00
2023-08-13T01:49:25.599Z,95107.00
2023-08-13T01:50:25.602Z,95109.00
2023-08-13T01:51:25.629Z,95111.00
2023-08-13T01:52:25.716Z,95112.00
2023-08-13T01:53:25.717Z,95114.00
2023-08-13T01:54:25.766Z,95112.00
2023-08-13T01:55:25.840Z,95112.00
2023-08-13T01:56:25.844Z,95112.00
2023-08-13T01:57:25.878Z,95111.00
2023-08-13T01:58:25.918Z,95112.00
2023-08-13T01:59:25.963Z,95114.00
2023-08-13T02:00:26.027Z,95114.00
2023-08-13T02:01:26.062Z,95114.00
2023-08-13T02:02:26.085Z,95114.00
2023-08-13T02:03:26.105Z,95111.00
2023-08-13T02:04:26.178Z,95116.00
2023-08-13T02:05:26.153Z,95114.00
2023-08-13T02:06:26.189Z,95120.00
2023-08-13T02:07:26.229Z,95112.00
2023-08-13T02:08:26.272Z,95114.00
2023-08-13T02:09:26.309Z,95114.00
2023-08-13T02:10:26.344Z,95114.00
2023-08-13T02:11:26.384Z,95114.00
2023-08-13T02:12:26.415Z,95116.00
2023-08-13T02:13:26.448Z,95114.00
2023-08-13T02:14:26.450Z,95116.00
2023-08-13T02:15:26.477Z,95116.00
2023-08-13T02:16:26.572Z,95118.00
2023-08-13T02:17:26.606Z,95118.00
2023-08-13T02:18:26.608Z,95120.00
2023-08-13T02:19:26.622Z,95120.00
2023-08-13T02:20:26.659Z,95122.00
2023-08-13T02:21:26.685Z,95122.00
2023-08-13T02:22:26.685Z,95118.00
2023-08-13T02:23:26.754Z,95122.00
2023-08-13T02:24:26.719Z,95120.00
2023-08-13T02:25:26.748Z,95118.00
2023-08-13T02:26:26.786Z,95118.00
2023-08-13T02:27:26.803Z,95116.00
2023-08-13T02:28:26.820Z,95114.00
2023-08-13T02:29:26.857Z,95114.00
2023-08-13T02:30:26.864Z,95112.00
2023-08-13T02:31:26.956Z,95116.00
2023-08-13T02:32:26.885Z,95116.00
2023-08-13T02:33:26.898Z,95116.00
2023-08-13T02:34:26.915Z,95118.00
2023-08-13T02:35:26.935Z,95116.00
2023-08-13T02:36:26.949Z,95114.00
2023-08-13T02:37:26.972Z,95114.00
2023-08-13T02:38:26.968Z,95114.00
2023-08-13T02:39:27.004Z,95116.00
2023-08-13T02:40:27.061Z,95118.00
2023-08-13T02:41:27.048Z,95116.00
2023-08-13T02:42:27.068Z,95118.00
2023-08-13T02:43:27.037Z,95114.00
2023-08-13T02:44:27.053Z,95114.00
2023-08-13T02:45:27.080Z,95114.00
2023-08-13T02:46:27.091Z,95114.00
2023-08-13T02:47:27.125Z,95114.00
2023-08-13T02:48:27.118Z,95116.00
2023-08-13T02:49:27.083Z,95116.00
2023-08-13T02:50:27.096Z,95114.00
2023-08-13T02:51:27.069Z,95114.00
2023-08-13T02:52:27.104Z,95116.00
2023-08-13T02:53:27.124Z,95114.00
2023-08-13T02:54:27.114Z,95114.00
2023-08-13T02:55:27.164Z,95114.00
2023-08-13T02:56:27.146Z,95114.00
2023-08-13T02:57:27.144Z,95114.00
2023-08-13T02:58:27.175Z,95116.00
2023-08-13T02:59:27.182Z,95116.00
2023-08-13T03:00:27.318Z,95116.00
2023-08-13T03:01:27.266Z,95112.00
2023-08-13T03:02:27.289Z,95114.00
2023-08-13T03:03:32.395Z,95112.00
2023-08-13T03:04:28.209Z,95116.00
2023-08-13T03:05:27.200Z,95114.00
2023-08-13T03:06:27.205Z,95114.00
2023-08-13T03:07:27.186Z,95111.00
2023-08-13T03:08:27.190Z,95111.00
2023-08-13T03:09:27.186Z,95112.00
2023-08-13T03:10:27.194Z,95111.00
2023-08-13T03:11:27.160Z,95112.00
2023-08-13T03:12:27.136Z,95112.00
2023-08-13T03:13:27.203Z,95112.00
2023-08-13T03:14:27.144Z,95112.00
2023-08-13T03:15:27.129Z,95112.00
2023-08-13T03:16:27.192Z,95112.00
2023-08-13T03:17:27.177Z,95114.00
2023-08-13T03:18:27.119Z,95112.00
2023-08-13T03:19:27.103Z,95114.00
2023-08-13T03:20:27.134Z,95114.00
2023-08-13T03:21:27.120Z,95112.00
2023-08-13T03:22:27.120Z,95112.00
2023-08-13T03:23:27.070Z,95112.00
2023-08-13T03:24:27.067Z,95114.00
2023-08-13T03:25:27.074Z,95116.00
2023-08-13T03:26:27.066Z,95114.00
2023-08-13T03:27:27.085Z,95116.00
2023-08-13T03:28:27.062Z,95118.00
2023-08-13T03:29:27.028Z,95118.00
2023-08-13T03:30:27.027Z,95118.00
2023-08-13T03:31:27.086Z,95114.00
2023-08-13T03:32:27.055Z,95118.00
2023-08-13T03:33:27.012Z,95114.00
2023-08-13T03:34:27.012Z,95114.00
2023-08-13T03:35:26.980Z,95114.00
2023-08-13T03:36:27.001Z,95114.00
2023-08-13T03:37:26.983Z,95118.00
2023-08-13T03:38:26.953Z,95118.00
2023-08-13T03:39:26.953Z,95120.00
2023-08-13T03:40:26.975Z,95120.00
2023-08-13T03:41:26.961Z,95118.00
2023-08-13T03:42:26.949Z,95120.00
2023-08-13T03:43:26.955Z,95118.00
2023-08-13T03:44:26.941Z,95118.00
2023-08-13T03:45:26.914Z,95120.00
2023-08-13T03:46:26.916Z,95124.00
2023-08-13T03:47:26.918Z,95122.00
2023-08-13T03:48:26.890Z,95122.00
2023-08-13T03:49:26.909Z,95122.00
2023-08-13T03:50:26.883Z,95122.00
2023-08-13T03:51:26.864Z,95122.00
2023-08-13T03:52:26.861Z,95122.00
2023-08-13T03:53:26.838Z,95120.00
2023-08-13T03:54:26.845Z,95122.00
2023-08-13T03:55:26.840Z,95118.00
2023-08-13T03:56:26.873Z,95118.00
2023-08-13T03:57:26.808Z,95116.00
2023-08-13T03:58:26.830Z,95118.00
2023-08-13T03:59:26.822Z,95118.00
2023-08-13T04:00:26.807Z,95116.00
2023-08-13T04:01:26.892Z,95114.00
2023-08-13T04:02:26.951Z,95116.00
2023-08-13T04:03:27.265Z,95112.00
2023-08-13T04:04:26.881Z,95112.00
2023-08-13T04:05:26.812Z,95112.00
2023-08-13T04:06:26.840Z,95111.00
2023-08-13T04:07:26.808Z,95109.00
2023-08-13T04:08:26.799Z,95109.00
2023-08-13T04:09:26.807Z,95111.00
2023-08-13T04:10:26.820Z,95111.00
2023-08-13T04:11:26.855Z,95114.00
2023-08-13T04:12:26.847Z,95114.00
2023-08-13T04:13:26.844Z,95114.00
2023-08-13T04:14:26.836Z,95114.00
2023-08-13T04:15:26.816Z,95116.00
2023-08-13T04:16:26.884Z,95116.00
2023-08-13T04:17:26.844Z,95120.00
2023-08-13T04:18:26.866Z,95118.00
2023-08-13T04:19:26.842Z,95118.00
2023-08-13T04:20:26.833Z,95120.00
2023-08-13T04:21:26.809Z,95120.00
2023-08-13T04:22:26.842Z,95122.00
2023-08-13T04:23:26.851Z,95124.00
2023-08-13T04:24:26.851Z,95122.00
2023-08-13T04:25:26.842Z,95124.00
2023-08-13T04:26:26.837Z,95124.00
2023-08-13T04:27:26.866Z,95124.00
2023-08-13T04:28:26.833Z,95128.00
2023-08-13T04:29:26.850Z,95122.00
2023-08-13T04:30:26.835Z,95122.00
2023-08-13T04:31:26.893Z,95122.00
2023-08-13T04:32:26.873Z,95120.00
2023-08-13T04:33:26.826Z,95120.00
2023-08-13T04:34:26.845Z,95120.00
2023-08-13T04:35:26.849Z,95120.00
2023-08-13T04:36:26.831Z,95122.00
2023-08-13T04:37:26.828Z,95124.00
2023-08-13T04:38:26.858Z,95126.00
2023-08-13T04:39:26.825Z,95126.00
2023-08-13T04:40:26.833Z,95128.00
2023-08-13T04:41:26.816Z,95128.00
2023-08-13T04:42:26.837Z,95126.00
2023-08-13T04:43:26.839Z,95128.00
2023-08-13T04:44:26.833Z,95122.00
2023-08-13T04:45:26.911Z,95124.00
2023-08-13T04:46:26.829Z,95128.00
2023-08-13T04:47:26.838Z,95128.00
2023-08-13T04:48:26.844Z,95124.00
2023-08-13T04:49:26.819Z,95126.00
2023-08-13T04:50:26.848Z,95124.00
2023-08-13T04:51:26.850Z,95124.00
2023-08-13T04:52:26.882Z,95122.00
2023-08-13T04:53:26.848Z,95122.00
2023-08-13T04:54:26.864Z,95122.00
2023-08-13T04:55:26.873Z,95122.00
2023-08-13T04:56:26.848Z,95120.00
2023-08-13T04:57:26.855Z,95120.00
2023-08-13T04:58:26.872Z,95118.00
2023-08-13T04:59:26.864Z,95120.00
2023-08-13T05:00:26.887Z,95124.00
2023-08-13T05:01:26.904Z,95120.00
2023-08-13T05:02:26.934Z,95120.00
2023-08-13T05:03:26.861Z,95120.00
2023-08-13T05:04:26.940Z,95122.00
2023-08-13T05:05:26.944Z,95118.00
2023-08-13T05:06:26.924Z,95118.00
2023-08-13T05:07:26.904Z,95118.00
2023-08-13T05:08:26.888Z,95120.00
2023-08-13T05:09:26.923Z,95118.00
2023-08-13T05:10:26.916Z,95118.00
2023-08-13T05:11:26.916Z,95120.00
2023-08-13T05:12:26.950Z,95120.00
2023-08-13T05:13:26.899Z,95120.00
2023-08-13T05:14:26.915Z,95118.00
2023-08-13T05:15:26.927Z,95118.00
2023-08-13T05:16:26.908Z,95116.00
2023-08-13T05:17:27.109Z,95114.00
2023-08-13T05:18:26.895Z,95114.00
2023-08-13T05:19:28.553Z,95118.00
2023-08-13T05:20:26.929Z,95118.00
2023-08-13T05:21:26.890Z,95118.00
2023-08-13T05:22:26.923Z,95122.00
2023-08-13T05:23:26.931Z,95122.00
2023-08-13T05:24:26.951Z,95122.00
2023-08-13T05:25:26.920Z,95122.00
2023-08-13T05:26:26.937Z,95120.00
2023-08-13T05:27:26.943Z,95122.00
2023-08-13T05:28:26.916Z,95120.00
2023-08-13T05:29:26.900Z,95118.00
2023-08-13T05:30:26.912Z,95120.00
2023-08-13T05:31:26.969Z,95120.00
2023-08-13T05:32:26.933Z,95120.00
2023-08-13T05:33:27.018Z,95122.00
2023-08-13T05:34:26.858Z,95122.00
2023-08-13T05:35:26.889Z,95120.00
2023-08-13T05:36:26.873Z,95120.00
2023-08-13T05:37:26.845Z,95120.00
2023-08-13T05:38:26.858Z,95120.00
2023-08-13T05:39:26.827Z,95118.00
2023-08-13T05:40:26.844Z,95116.00
2023-08-13T05:41:26.824Z,95118.00
2023-08-13T05:42:26.831Z,95120.00
2023-08-13T05:43:26.930Z,95120.00
2023-08-13T05:44:26.814Z,95118.00
2023-08-13T05:45:26.794Z,95118.00
2023-08-13T05:46:26.850Z,95120.00
2023-08-13T05:47:26.825Z,95118.00
2023-08-13T05:48:26.781Z,95118.00
2023-08-13T05:49:26.760Z,95120.00
2023-08-13T05:50:26.766Z,95120.00
2023-08-13T05:51:26.770Z,95120.00
2023-08-13T05:52:26.736Z,95120.00
2023-08-13T05:53:26.738Z,95116.00
2023-08-13T05:54:26.762Z,95120.00
2023-08-13T05:55:26.750Z,95118.00
2023-08-13T05:56:26.708Z,95118.00
2023-08-13T05:57:26.732Z,95114.00
2023-08-13T05:58:26.713Z,95114.00
2023-08-13T05:59:26.713Z,95111.00
2023-08-13T06:00:26.718Z,95112.00
2023-08-13T06:01:26.676Z,95111.00
2023-08-13T06:02:26.763Z,95111.00
2023-08-13T06:03:27.743Z,95111.00
2023-08-13T06:04:26.649Z,95111.00
2023-08-13T06:05:26.673Z,95109.00
2023-08-13T06:06:26.674Z,95111.00
2023-08-13T06:07:26.681Z,95109.00
2023-08-13T06:08:26.704Z,95109.00
2023-08-13T06:09:26.720Z,95105.00
2023-08-13T06:10:26.720Z,95103.00
2023-08-13T06:11:26.755Z,95105.00
2023-08-13T06:12:26.747Z,95107.00
2023-08-13T06:13:26.852Z,95105.00
2023-08-13T06:14:26.796Z,95103.00
2023-08-13T06:15:26.850Z,95101.00
2023-08-13T06:16:26.918Z,95103.00
2023-08-13T06:17:27.020Z,95107.00
2023-08-13T06:18:26.997Z,95103.00
2023-08-13T06:19:27.035Z,95105.00
2023-08-13T06:20:27.084Z,95103.00
2023-08-13T06:21:27.126Z,95099.00
2023-08-13T06:22:27.173Z,95099.00
2023-08-13T06:23:27.162Z,95099.00
2023-08-13T06:24:27.159Z,95097.00
2023-08-13T06:25:27.169Z,95099.00
2023-08-13T06:26:27.175Z,95093.00
2023-08-13T06:27:27.194Z,95093.00
2023-08-13T06:28:27.228Z,95093.00
2023-08-13T06:29:27.221Z,95095.00
2023-08-13T06:30:27.281Z,95097.00
2023-08-13T06:31:41.721Z,95091.00
2023-08-13T06:32:28.350Z,95095.00
2023-08-13T06:33:27.327Z,95095.00
2023-08-13T06:34:27.299Z,95095.00
2023-08-13T06:35:27.283Z,95093.00
2023-08-13T06:36:27.275Z,95091.00
2023-08-13T06:37:27.253Z,95091.00
2023-08-13T06:38:27.410Z,95093.00
2023-08-13T06:39:27.241Z,95091.00
2023-08-13T06:40:27.257Z,95089.00
2023-08-13T06:41:27.235Z,95087.00
2023-08-13T06:42:27.229Z,95089.00
2023-08-13T06:43:27.300Z,95089.00
2023-08-13T06:44:27.269Z,95085.00
2023-08-13T06:45:27.439Z,95085.00
2023-08-13T06:46:27.316Z,95083.00
2023-08-13T06:47:27.309Z,95077.00
2023-08-13T06:48:27.325Z,95075.00
2023-08-13T06:49:27.372Z,95073.00
2023-08-13T06:50:27.409Z,95073.00
2023-08-13T06:51:27.450Z,95069.00
2023-08-13T06:52:27.539Z,95071.00
2023-08-13T06:53:27.602Z,95073.00
2023-08-13T06:54:27.617Z,95073.00
2023-08-13T06:55:27.647Z,95071.00
2023-08-13T06:56:27.670Z,95065.00
2023-08-13T06:57:27.665Z,95067.00
2023-08-13T06:58:27.668Z,95065.00
2023-08-13T06:59:27.694Z,95065.00
2023-08-13T07:00:38.431Z,95060.00
2023-08-13T07:01:28.764Z,95063.00
2023-08-13T07:02:27.710Z,95058.00
2023-08-13T07:03:27.676Z,95056.00
2023-08-13T07:04:27.716Z,95054.00
2023-08-13T07:05:27.668Z,95058.00
2023-08-13T07:06:27.653Z,95060.00
2023-08-13T07:07:27.630Z,95056.00
2023-08-13T07:08:27.638Z,95054.00
2023-08-13T07:09:27.653Z,95054.00
2023-08-13T07:10:27.620Z,95052.00
2023-08-13T07:11:27.637Z,95052.00
2023-08-13T07:12:27.606Z,95048.00
2023-08-13T07:13:27.583Z,95048.00
2023-08-13T07:14:27.586Z,95046.00
2023-08-13T07:15:27.608Z,95046.00
2023-08-13T07:16:27.705Z,95048.00
2023-08-13T07:17:27.622Z,95044.00
2023-08-13T07:18:27.567Z,95048.00
2023-08-13T07:19:27.571Z,95048.00
2023-08-13T07:20:27.605Z,95050.00
2023-08-13T07:21:27.630Z,95048.00
2023-08-13T07:22:27.679Z,95048.00
2023-08-13T07:23:27.752Z,95044.00
2023-08-13T07:24:27.757Z,95044.00
2023-08-13T07:25:27.815Z,95042.00
2023-08-13T07:26:27.801Z,95044.00
2023-08-13T07:27:27.829Z,95042.00
2023-08-13T07:28:27.840Z,95038.00
2023-08-13T07:29:27.884Z,95038.00
2023-08-13T07:30:27.913Z,95032.00
2023-08-13T07:31:27.983Z,95036.00
2023-08-13T07:32:27.997Z,95032.00
2023-08-13T07:33:27.976Z,95030.00
2023-08-13T07:34:28.037Z,95034.00
2023-08-13T07:35:28.083Z,95030.00
2023-08-13T07:36:28.069Z,95030.00
2023-08-13T07:37:28.115Z,95030.00
2023-08-13T07:38:28.135Z,95030.00
2023-08-13T07:39:28.164Z,95028.00
2023-08-13T07:40:28.161Z,95028.00
2023-08-13T07:41:28.173Z,95030.00
2023-08-13T07:42:28.209Z,95030.00
2023-08-13T07:43:28.226Z,95028.00
2023-08-13T07:44:28.236Z,95028.00
2023-08-13T07:45:28.311Z,95028.00
2023-08-13T07:46:28.315Z,95028.00
2023-08-13T07:47:28.306Z,95028.00
2023-08-13T07:48:28.318Z,95026.00
2023-08-13T07:49:28.318Z,95024.00
2023-08-13T07:50:28.377Z,95024.00
2023-08-13T07:51:28.344Z,95022.00
2023-08-13T07:52:28.413Z,95022.00
2023-08-13T07:53:28.438Z,95020.00
2023-08-13T07:54:28.442Z,95022.00
2023-08-13T07:55:28.420Z,95018.00
2023-08-13T07:56:28.427Z,95020.00
2023-08-13T07:57:28.449Z,95020.00
2023-08-13T07:58:28.449Z,95018.00
2023-08-13T07:59:28.471Z,95016.00
2023-08-13T08:00:28.457Z,95013.00
2023-08-13T08:01:28.478Z,95013.00
2023-08-13T08:02:28.480Z,95011.00
2023-08-13T08:03:28.504Z,95013.00
2023-08-13T08:04:28.469Z,95007.00
2023-08-13T08:05:28.452Z,95011.00
2023-08-13T08:06:29.302Z,95011.00
2023-08-13T08:07:28.450Z,95009.00
2023-08-13T08:08:28.503Z,95009.00
2023-08-13T08:09:28.454Z,95007.00
2023-08-13T08:10:28.484Z,95007.00
2023-08-13T08:11:28.447Z,95003.00
2023-08-13T08:12:28.517Z,95001.00
2023-08-13T08:13:29.651Z,94999.00
2023-08-13T08:14:28.532Z,94999.00
2023-08-13T08:15:28.516Z,95001.00
2023-08-13T08:16:28.512Z,95001.00
2023-08-13T08:17:28.519Z,94997.00
2023-08-13T08:18:28.506Z,94993.00
2023-08-13T08:19:28.498Z,94993.00
2023-08-13T08:20:28.504Z,94991.00
2023-08-13T08:21:28.467Z,94991.00
2023-08-13T08:22:28.464Z,94989.00
2023-08-13T08:23:28.459Z,94985.00
2023-08-13T08:24:28.480Z,94981.00
2023-08-13T08:25:28.447Z,94981.00
2023-08-13T08:26:28.473Z,94979.00
2023-08-13T08:27:28.421Z,94977.00
2023-08-13T08:28:28.423Z,94977.00
2023-08-13T08:29:28.414Z,94975.00
2023-08-13T08:30:28.427Z,94973.00
2023-08-13T08:31:28.447Z,94971.00
2023-08-13T08:32:28.411Z,94969.00
2023-08-13T08:33:28.389Z,94969.00
2023-08-13T08:34:30.611Z,94973.00
2023-08-13T08:35:28.404Z,94964.00
2023-08-13T08:36:28.456Z,94969.00
2023-08-13T08:37:28.511Z,94966.00
2023-08-13T08:38:28.571Z,94964.00
2023-08-13T08:39:28.617Z,94962.00
2023-08-13T08:40:30.856Z,94960.00
2023-08-13T08:41:28.784Z,94960.00
2023-08-13T08:42:28.816Z,94956.00
2023-08-13T08:43:28.882Z,94956.00
2023-08-13T08:44:28.916Z,94954.00
2023-08-13T08:45:29.008Z,94954.00
2023-08-13T08:46:30.653Z,94952.00
2023-08-13T08:47:29.114Z,94948.00
2023-08-13T08:48:29.152Z,94948.00
2023-08-13T08:49:29.183Z,94944.00
2023-08-13T08:50:29.265Z,94944.00
2023-08-13T08:51:29.292Z,94942.00
2023-08-13T08:52:30.244Z,94940.00
2023-08-13T08:53:29.440Z,94940.00
2023-08-13T08:54:29.447Z,94938.00
2023-08-13T08:55:29.513Z,94932.00
2023-08-13T08:56:29.542Z,94938.00
2023-08-13T08:57:29.587Z,94932.00
2023-08-13T08:58:29.623Z,94934.00
2023-08-13T08:59:29.676Z,94930.00
2023-08-13T09:00:29.713Z,94930.00
2023-08-13T09:01:29.773Z,94926.00
2023-08-13T09:02:29.912Z,94924.00
2023-08-13T09:03:29.989Z,94924.00
2023-08-13T09:04:29.868Z,94922.00
2023-08-13T09:05:29.906Z,94920.00
2023-08-13T09:06:29.915Z,94920.00
2023-08-13T09:07:29.939Z,94918.00
2023-08-13T09:08:29.993Z,94918.00
2023-08-13T09:09:30.042Z,94916.00
2023-08-13T09:10:30.069Z,94911.00
2023-08-13T09:11:30.077Z,94912.00
2023-08-13T09:12:30.149Z,94909.00
2023-08-13T09:13:30.137Z,94907.00
2023-08-13T09:14:30.158Z,94901.00
2023-08-13T09:15:30.197Z,94899.00
2023-08-13T09:16:30.251Z,94895.00
2023-08-13T09:17:30.262Z,94897.00
2023-08-13T09:18:30.256Z,94891.00
2023-08-13T09:19:30.283Z,94889.00
2023-08-13T09:20:30.340Z,94891.00
2023-08-13T09:21:30.360Z,94881.00
2023-08-13T09:22:30.363Z,94881.00
2023-08-13T09:23:30.369Z,94877.00
2023-08-13T09:24:30.385Z,94879.00
2023-08-13T09:25:30.445Z,94877.00
2023-08-13T09:26:30.587Z,94875.00
2023-08-13T09:27:30.485Z,94875.00
2023-08-13T09:28:30.506Z,94873.00
2023-08-13T09:29:30.527Z,94871.00
2023-08-13T09:30:30.549Z,94873.00
2023-08-13T09:31:30.565Z,94873.00
2023-08-13T09:32:30.596Z,94867.00
2023-08-13T09:33:30.593Z,94866.00
2023-08-13T09:34:30.606Z,94864.00
2023-08-13T09:35:30.631Z,94862.00
2023-08-13T09:36:30.637Z,94862.00
2023-08-13T09:37:30.651Z,94862.00
2023-08-13T09:38:30.692Z,94862.00
2023-08-13T09:39:30.691Z,94860.00
2023-08-13T09:40:30.719Z,94858.00
2023-08-13T09:41:30.744Z,94860.00
2023-08-13T09:42:30.742Z,94858.00
2023-08-13T09:43:30.744Z,94856.00
2023-08-13T09:44:30.779Z,94854.00
2023-08-13T09:45:30.822Z,94852.00
2023-08-13T09:46:30.841Z,94852.00
2023-08-13T09:47:30.804Z,94850.00
2023-08-13T09:48:30.828Z,94852.00
2023-08-13T09:49:30.835Z,94848.00
2023-08-13T09:50:30.860Z,94846.00
2023-08-13T09:51:38.778Z,94848.00
2023-08-13T09:52:31.871Z,94846.00
2023-08-13T09:53:30.869Z,94842.00
2023-08-13T09:54:30.843Z,94838.00
2023-08-13T09:55:30.832Z,94838.00
2023-08-13T09:56:30.832Z,94834.00
2023-08-13T09:57:30.822Z,94834.00
2023-08-13T09:58:30.820Z,94832.00
2023-08-13T09:59:30.794Z,94830.00
2023-08-13T10:00:30.886Z,94828.00
2023-08-13T10:01:30.826Z,94830.00
2023-08-13T10:02:30.832Z,94826.00
2023-08-13T10:03:30.872Z,94826.00
2023-08-13T10:04:30.934Z,94826.00
2023-08-13T10:05:30.747Z,94824.00
2023-08-13T10:06:30.758Z,94822.00
2023-08-13T10:07:30.744Z,94824.00
2023-08-13T10:08:30.729Z,94820.00
2023-08-13T10:09:30.733Z,94818.00
2023-08-13T10:10:30.728Z,94818.00
2023-08-13T10:11:31.258Z,94816.00
2023-08-13T10:12:30.723Z,94818.00
2023-08-13T10:13:30.731Z,94814.00
2023-08-13T10:14:30.693Z,94814.00
2023-08-13T10:15:30.683Z,94812.00
2023-08-13T10:16:30.773Z,94816.00
2023-08-13T10:17:30.791Z,94814.00
2023-08-13T10:18:30.672Z,94811.00
2023-08-13T10:19:30.670Z,94809.00
2023-08-13T10:20:30.662Z,94811.00
2023-08-13T10:21:30.676Z,94807.00
2023-08-13T10:22:30.640Z,94805.00
2023-08-13T10:23:30.628Z,94805.00
2023-08-13T10:24:30.641Z,94807.00
2023-08-13T10:25:30.644Z,94801.00
2023-08-13T10:26:30.641Z,94803.00
2023-08-13T10:27:30.655Z,94795.00
2023-08-13T10:28:30.663Z,94799.00
2023-08-13T10:29:30.655Z,94795.00
2023-08-13T10:30:30.669Z,94795.00
2023-08-13T10:31:30.818Z,94791.00
2023-08-13T10:32:30.729Z,94793.00
2023-08-13T10:33:30.703Z,94787.00
2023-08-13T10:34:30.685Z,94787.00
2023-08-13T10:35:30.696Z,94785.00
2023-08-13T10:36:30.684Z,94787.00
2023-08-13T10:37:30.696Z,94785.00
2023-08-13T10:38:30.695Z,94779.00
2023-08-13T10:39:30.713Z,94777.00
2023-08-13T10:40:30.700Z,94777.00
2023-08-13T10:41:30.737Z,94775.00
2023-08-13T10:42:30.736Z,94771.00
2023-08-13T10:43:30.739Z,94769.00
2023-08-13T10:44:30.739Z,94769.00
2023-08-13T10:45:30.737Z,94767.00
2023-08-13T10:46:30.762Z,94762.00
2023-08-13T10:47:30.889Z,94760.00
2023-08-13T10:48:30.819Z,94760.00
2023-08-13T10:49:30.753Z,94760.00
2023-08-13T10:50:30.787Z,94758.00
2023-08-13T10:51:30.788Z,94758.00
2023-08-13T10:52:30.812Z,94756.00
2023-08-13T10:53:30.817Z,94756.00
2023-08-13T10:54:30.818Z,94756.00
2023-08-13T10:55:30.811Z,94754.00
2023-08-13T10:56:30.830Z,94756.00
2023-08-13T10:57:30.836Z,94754.00
2023-08-13T10:58:30.830Z,94754.00
2023-08-13T10:59:30.841Z,94752.00
2023-08-13T11:00:30.836Z,94748.00
2023-08-13T11:01:30.898Z,94748.00
2023-08-13T11:02:30.960Z,94744.00
2023-08-13T11:03:30.959Z,94744.00
2023-08-13T11:04:30.862Z,94744.00
2023-08-13T11:05:30.880Z,94738.00
2023-08-13T11:06:30.855Z,94740.00
2023-08-13T11:07:30.889Z,94738.00
2023-08-13T11:08:46.960Z,94738.00
2023-08-13T11:09:31.880Z,94740.00
2023-08-13T11:10:30.879Z,94736.00
2023-08-13T11:11:30.889Z,94738.00
2023-08-13T11:12:30.898Z,94736.00
2023-08-13T11:13:30.843Z,94736.00
2023-08-13T11:14:30.861Z,94730.00
2023-08-13T11:15:30.874Z,94730.00
2023-08-13T11:16:30.857Z,94728.00
2023-08-13T11:17:30.829Z,94726.00
2023-08-13T11:18:30.823Z,94724.00
2023-08-13T11:19:30.789Z,94722.00
2023-08-13T11:20:30.789Z,94724.00
2023-08-13T11:21:30.789Z,94722.00
2023-08-13T11:22:30.773Z,94722.00
2023-08-13T11:23:30.771Z,94715.00
2023-08-13T11:24:30.798Z,94718.00
2023-08-13T11:25:30.784Z,94717.00
2023-08-13T11:26:30.768Z,94718.00
2023-08-13T11:27:30.764Z,94717.00
2023-08-13T11:28:30.765Z,94717.00
2023-08-13T11:29:30.733Z,94713.00
2023-08-13T11:30:30.733Z,94715.00
2023-08-13T11:31:30.744Z,94713.00
2023-08-13T11:32:32.452Z,94713.00
2023-08-13T11:33:31.232Z,94715.00
2023-08-13T11:34:30.722Z,94715.00
2023-08-13T11:35:30.743Z,94711.00
2023-08-13T11:36:30.684Z,94711.00
2023-08-13T11:37:30.683Z,94709.00
2023-08-13T11:38:30.680Z,94709.00
2023-08-13T11:39:30.652Z,94705.00
2023-08-13T11:40:30.650Z,94703.00
2023-08-13T11:41:30.661Z,94703.00
2023-08-13T11:42:30.660Z,94699.00
2023-08-13T11:43:30.759Z,94699.00
2023-08-13T11:44:30.650Z,94693.00